Time;durP1;ratioP1;P1;durP2;ratioP2;P2;SDS_P1;SDS_P2;PMS_P1;PMS_P2;Temp;Humidity;BMP_temperature;BMP_pressure;BME280_temperature;BME280_humidity;BME280_pressure;Samples;Min_cycle;Max_cycle;Signal;HPM_P1;HPM_P2
2021/10/30 00:00:23;;;;;;;156.05;34.55;;;8.40;99.90;;;;;;5036218;28;20025;-93
2021/10/30 00:02:49;;;;;;;123.68;30.75;;;8.40;99.90;;;;;;5036002;28;20014;-93
2021/10/30 00:05:15;;;;;;;182.73;36.35;;;8.40;99.90;;;;;;5035690;28;20491;-93
2021/10/30 00:07:42;;;;;;;127.47;29.75;;;8.40;99.90;;;;;;5035184;28;20120;-93
2021/10/30 00:10:13;;;;;;;118.47;27.20;;;8.40;99.90;;;;;;5035731;28;20480;-93
2021/10/30 00:12:38;;;;;;;103.78;26.13;;;8.40;99.90;;;;;;5035829;28;20037;-93
2021/10/30 00:15:05;;;;;;;151.88;27.20;;;8.40;99.90;;;;;;5035611;28;20029;-94
2021/10/30 00:17:30;;;;;;;79.15;23.42;;;8.30;99.90;;;;;;5035379;28;20078;-94
2021/10/30 00:19:56;;;;;;;82.20;21.38;;;8.30;99.90;;;;;;5035538;28;20025;-94
2021/10/30 00:22:22;;;;;;;91.82;23.67;;;8.40;99.90;;;;;;5035717;28;20365;-94
2021/10/30 00:24:47;;;;;;;83.45;23.20;;;8.30;99.90;;;;;;5035439;28;20392;-93
2021/10/30 00:27:14;;;;;;;76.97;23.77;;;8.30;99.90;;;;;;5035652;28;20025;-93
2021/10/30 00:29:40;;;;;;;78.88;23.65;;;8.40;99.90;;;;;;5035623;28;20022;-94
2021/10/30 00:32:07;;;;;;;66.82;24.27;;;8.40;99.90;;;;;;5035214;28;20140;-93
2021/10/30 00:34:33;;;;;;;86.00;27.58;;;8.20;99.90;;;;;;5035030;28;20065;-93
2021/10/30 00:36:59;;;;;;;92.05;26.42;;;8.30;99.90;;;;;;5035190;28;20108;-93
2021/10/30 00:39:25;;;;;;;90.63;28.52;;;8.30;99.90;;;;;;5034760;28;20032;-93
2021/10/30 00:41:52;;;;;;;107.63;31.48;;;8.20;99.90;;;;;;5035081;28;20055;-93
2021/10/30 00:44:20;;;;;;;120.68;31.88;;;8.10;99.90;;;;;;5035019;28;20033;-93
2021/10/30 00:46:48;;;;;;;78.95;26.20;;;8.10;99.90;;;;;;5035187;28;20028;-93
2021/10/30 00:49:15;;;;;;;119.95;28.08;;;8.20;99.90;;;;;;5034950;28;20030;-93
2021/10/30 00:51:42;;;;;;;83.15;24.35;;;8.20;99.90;;;;;;5035005;28;20030;-93
2021/10/30 00:54:10;;;;;;;50.90;19.58;;;8.20;99.90;;;;;;5034628;28;20030;-93
2021/10/30 00:56:36;;;;;;;65.80;19.98;;;8.20;99.90;;;;;;5034814;28;20024;-93
2021/10/30 00:59:10;;;;;;;106.80;25.80;;;8.30;99.90;;;;;;5034795;28;20022;-94
2021/10/30 01:01:41;;;;;;;52.10;20.20;;;8.10;99.90;;;;;;5034687;28;20471;-93
2021/10/30 01:04:07;;;;;;;64.38;21.02;;;8.20;99.90;;;;;;5034662;28;20108;-93
2021/10/30 01:06:34;;;;;;;76.78;25.05;;;8.20;99.90;;;;;;5034380;28;20805;-94
2021/10/30 01:09:00;;;;;;;120.05;27.08;;;8.20;99.90;;;;;;5034566;28;20543;-93
2021/10/30 01:11:26;;;;;;;92.28;25.00;;;8.20;99.90;;;;;;5034566;28;20032;-93
2021/10/30 01:13:54;;;;;;;58.55;24.00;;;8.20;99.90;;;;;;5034607;28;20017;-93
2021/10/30 01:16:20;;;;;;;56.00;21.20;;;8.20;99.90;;;;;;5034427;28;20053;-93
2021/10/30 01:18:46;;;;;;;66.68;23.67;;;8.30;99.90;;;;;;5033907;28;20457;-93
2021/10/30 01:21:13;;;;;;;62.38;22.95;;;8.30;99.90;;;;;;5034524;28;20384;-93
2021/10/30 01:23:39;;;;;;;123.40;32.65;;;8.30;99.90;;;;;;5034660;28;20108;-94
2021/10/30 01:26:05;;;;;;;134.93;36.00;;;8.40;99.90;;;;;;5034417;28;20124;-94
2021/10/30 01:28:34;;;;;;;112.28;34.00;;;8.40;99.90;;;;;;5034146;28;20036;-93
2021/10/30 01:31:01;;;;;;;107.50;36.43;;;8.40;99.90;;;;;;5034152;28;20026;-94
2021/10/30 01:33:27;;;;;;;111.35;36.17;;;8.40;99.90;;;;;;5034031;28;20255;-93
2021/10/30 01:35:53;;;;;;;123.82;37.55;;;8.40;99.90;;;;;;5033825;28;20045;-93
2021/10/30 01:38:19;;;;;;;126.32;41.13;;;8.40;99.90;;;;;;5034052;28;20028;-93
2021/10/30 01:40:48;;;;;;;107.80;33.95;;;8.40;99.90;;;;;;5033780;28;20026;-93
2021/10/30 01:43:16;;;;;;;94.70;31.60;;;8.40;99.90;;;;;;5034116;28;20032;-93
2021/10/30 01:45:44;;;;;;;114.63;34.30;;;8.40;99.90;;;;;;5033722;28;20039;-93
2021/10/30 01:48:10;;;;;;;97.68;32.28;;;8.30;99.90;;;;;;5033846;28;20029;-94
2021/10/30 01:50:38;;;;;;;85.05;28.83;;;8.40;99.90;;;;;;5033865;28;20029;-94
2021/10/30 01:53:04;;;;;;;106.07;32.90;;;8.40;99.90;;;;;;5033664;28;20025;-94
2021/10/30 01:55:32;;;;;;;100.65;32.90;;;8.30;99.90;;;;;;5033553;28;20033;-93
2021/10/30 01:57:58;;;;;;;111.53;31.92;;;8.30;99.90;;;;;;5033706;28;20029;-94
2021/10/30 02:00:25;;;;;;;94.65;33.50;;;8.30;99.90;;;;;;5033389;28;20036;-93
2021/10/30 02:02:51;;;;;;;94.45;33.47;;;8.30;99.90;;;;;;5033815;28;20036;-93
2021/10/30 02:05:17;;;;;;;84.60;32.00;;;8.30;99.90;;;;;;5033799;28;20037;-93
2021/10/30 02:07:43;;;;;;;78.70;29.35;;;8.30;99.90;;;;;;5033426;28;20025;-93
2021/10/30 02:10:11;;;;;;;70.82;29.00;;;8.30;99.90;;;;;;5033599;28;20033;-93
2021/10/30 02:12:37;;;;;;;73.75;29.42;;;8.30;99.90;;;;;;5033334;28;20032;-93
2021/10/30 02:15:04;;;;;;;66.60;27.38;;;8.30;99.90;;;;;;5033386;28;20084;-93
2021/10/30 02:17:29;;;;;;;60.58;26.52;;;8.40;99.90;;;;;;5033616;28;20025;-93
2021/10/30 02:19:55;;;;;;;57.78;27.60;;;8.40;99.90;;;;;;5033664;28;20029;-93
2021/10/30 02:22:21;;;;;;;47.35;25.13;;;8.30;99.90;;;;;;5033302;28;20030;-93
2021/10/30 02:24:47;;;;;;;58.65;27.00;;;8.30;99.90;;;;;;5033317;28;20036;-93
2021/10/30 02:27:13;;;;;;;58.97;28.20;;;8.40;99.90;;;;;;5033320;28;20033;-94
2021/10/30 02:29:39;;;;;;;64.05;28.92;;;8.20;99.90;;;;;;5033335;28;20079;-94
2021/10/30 02:32:05;;;;;;;66.50;28.70;;;8.10;99.90;;;;;;5033071;28;20025;-93
2021/10/30 02:34:31;;;;;;;52.83;26.90;;;8.10;99.90;;;;;;5032753;28;20056;-94
2021/10/30 02:36:57;;;;;;;49.30;25.90;;;8.20;99.90;;;;;;5033360;28;20026;-93
2021/10/30 02:39:23;;;;;;;52.55;26.27;;;8.20;99.90;;;;;;5033302;28;20049;-93
2021/10/30 02:41:49;;;;;;;53.25;27.30;;;8.20;99.90;;;;;;5032966;28;20026;-94
2021/10/30 02:44:15;;;;;;;62.33;31.23;;;8.30;99.90;;;;;;5032995;28;20094;-93
2021/10/30 02:46:41;;;;;;;110.50;48.67;;;8.30;99.90;;;;;;5033128;28;20059;-91
2021/10/30 02:49:06;;;;;;;117.03;51.88;;;8.30;99.90;;;;;;5032924;28;20021;-94
2021/10/30 02:51:32;;;;;;;114.15;50.95;;;8.20;99.90;;;;;;5033548;28;20032;-92
2021/10/30 02:53:58;;;;;;;107.40;47.65;;;8.30;99.90;;;;;;5033217;28;20033;-92
2021/10/30 02:56:24;;;;;;;129.73;56.15;;;8.30;99.90;;;;;;5033148;28;20030;-92
2021/10/30 02:58:49;;;;;;;134.43;55.70;;;8.30;99.90;;;;;;5032835;28;20116;-91
2021/10/30 03:01:15;;;;;;;121.53;52.47;;;8.30;99.90;;;;;;5033007;28;20108;-91
2021/10/30 03:03:41;;;;;;;104.13;43.67;;;8.30;99.90;;;;;;5032803;28;20121;-91
2021/10/30 03:06:08;;;;;;;132.07;54.05;;;8.30;99.90;;;;;;5032809;28;20029;-91
2021/10/30 03:08:34;;;;;;;139.43;52.75;;;8.20;99.90;;;;;;5032688;28;20365;-91
2021/10/30 03:11:00;;;;;;;143.07;62.75;;;8.30;99.90;;;;;;5032787;28;20029;-92
2021/10/30 03:13:26;;;;;;;144.60;59.80;;;8.20;99.90;;;;;;5033072;28;20025;-94
2021/10/30 03:15:52;;;;;;;121.47;51.28;;;8.20;99.90;;;;;;5032889;28;20083;-96
2021/10/30 03:18:18;;;;;;;87.50;42.85;;;8.20;99.90;;;;;;5033023;28;20030;-94
2021/10/30 03:20:44;;;;;;;76.05;35.70;;;8.10;99.90;;;;;;5033032;28;20365;-93
2021/10/30 03:23:09;;;;;;;75.88;35.35;;;8.20;99.90;;;;;;5032682;28;20032;-94
2021/10/30 03:25:35;;;;;;;88.65;39.58;;;8.20;99.90;;;;;;5032686;28;20033;-94
2021/10/30 03:28:01;;;;;;;98.05;44.15;;;8.20;99.90;;;;;;5032936;28;20037;-94
2021/10/30 03:30:27;;;;;;;115.25;50.75;;;8.20;99.90;;;;;;5032429;28;20088;-94
2021/10/30 03:32:53;;;;;;;113.35;51.65;;;8.10;99.90;;;;;;5032560;28;20116;-94
2021/10/30 03:35:19;;;;;;;119.15;55.78;;;8.20;99.90;;;;;;5032414;28;20060;-93
2021/10/30 03:37:45;;;;;;;113.57;51.30;;;8.20;99.90;;;;;;5032424;28;20029;-94
2021/10/30 03:40:12;;;;;;;131.25;53.75;;;8.30;99.90;;;;;;5032491;28;20570;-93
2021/10/30 03:42:38;;;;;;;137.60;55.88;;;8.30;99.90;;;;;;5034280;28;20435;-94
2021/10/30 03:45:05;;;;;;;71.80;36.42;;;8.30;99.90;;;;;;5036794;28;20025;-96
2021/10/30 03:47:31;;;;;;;68.38;32.80;;;8.10;99.90;;;;;;5036484;28;20116;-92
2021/10/30 03:49:57;;;;;;;58.35;29.40;;;8.10;99.90;;;;;;5036007;28;20030;-91
2021/10/30 03:52:23;;;;;;;70.40;33.78;;;8.10;99.90;;;;;;5035926;28;20061;-91
2021/10/30 03:54:49;;;;;;;60.53;29.20;;;7.90;99.90;;;;;;5035997;28;20427;-93
2021/10/30 03:57:14;;;;;;;60.55;29.83;;;8.00;99.90;;;;;;5035890;28;20018;-93
2021/10/30 03:59:40;;;;;;;60.20;30.30;;;8.00;99.90;;;;;;5035886;28;20025;-93
2021/10/30 04:02:06;;;;;;;71.85;33.60;;;8.00;99.90;;;;;;5035809;28;20468;-94
2021/10/30 04:04:33;;;;;;;85.55;35.83;;;8.00;99.90;;;;;;5035574;28;20060;-93
2021/10/30 04:06:59;;;;;;;66.05;31.92;;;8.00;99.90;;;;;;5035755;28;20029;-96
2021/10/30 04:09:25;;;;;;;61.58;29.70;;;8.00;99.90;;;;;;5035753;28;20464;-94
2021/10/30 04:11:52;;;;;;;70.65;31.73;;;8.00;99.90;;;;;;5035621;28;20207;-93
2021/10/30 04:14:18;;;;;;;67.80;31.10;;;8.00;99.90;;;;;;5035881;28;20031;-92
2021/10/30 04:16:43;;;;;;;62.38;29.80;;;7.90;99.90;;;;;;5035481;28;20025;-92
2021/10/30 04:19:10;;;;;;;58.42;27.70;;;7.90;99.90;;;;;;5035423;28;20028;-92
2021/10/30 04:21:36;;;;;;;66.90;30.63;;;8.00;99.90;;;;;;5035462;28;20048;-92
2021/10/30 04:24:02;;;;;;;92.40;38.47;;;8.00;99.90;;;;;;5035443;28;20535;-93
2021/10/30 04:26:28;;;;;;;92.35;37.05;;;7.70;99.90;;;;;;5035371;28;20021;-92
2021/10/30 04:28:55;;;;;;;93.10;36.58;;;7.70;99.90;;;;;;5035570;28;20037;-93
2021/10/30 04:31:23;;;;;;;103.38;40.55;;;7.80;99.90;;;;;;5035239;28;20391;-93
2021/10/30 04:33:52;;;;;;;97.07;37.83;;;7.90;99.90;;;;;;5035072;28;20033;-94
2021/10/30 04:36:18;;;;;;;115.57;44.67;;;8.00;99.90;;;;;;5035357;28;20033;-94
2021/10/30 04:38:46;;;;;;;102.85;41.00;;;8.00;99.90;;;;;;5035231;28;20032;-94
2021/10/30 04:41:12;;;;;;;108.85;44.60;;;8.00;99.90;;;;;;5035116;28;20029;-94
2021/10/30 04:43:39;;;;;;;131.32;48.00;;;8.00;99.90;;;;;;5034991;28;20388;-94
2021/10/30 04:46:08;;;;;;;116.63;45.15;;;8.00;99.90;;;;;;5034934;28;20029;-93
2021/10/30 04:48:35;;;;;;;122.10;46.15;;;8.00;99.90;;;;;;5035167;28;20107;-93
2021/10/30 04:51:01;;;;;;;145.65;54.17;;;8.10;99.90;;;;;;5034891;28;20041;-93
2021/10/30 04:53:27;;;;;;;136.13;51.65;;;8.10;99.90;;;;;;5035143;28;20103;-93
2021/10/30 04:55:53;;;;;;;130.85;52.05;;;8.10;99.90;;;;;;5034592;28;20028;-94
2021/10/30 04:58:19;;;;;;;108.35;44.08;;;8.10;99.90;;;;;;5034727;28;20029;-93
2021/10/30 05:00:45;;;;;;;114.45;47.20;;;8.10;99.90;;;;;;5035084;28;20021;-94
2021/10/30 05:03:10;;;;;;;137.65;58.92;;;8.20;99.90;;;;;;5035093;28;20052;-95
2021/10/30 05:05:36;;;;;;;149.25;62.50;;;8.10;99.90;;;;;;5034537;28;20030;-94
2021/10/30 05:08:02;;;;;;;165.95;64.40;;;8.20;99.90;;;;;;5034512;28;20547;-94
2021/10/30 05:10:28;;;;;;;136.85;53.00;;;8.20;99.90;;;;;;5034309;28;20032;-95
2021/10/30 05:12:53;;;;;;;108.43;42.67;;;8.10;99.90;;;;;;5034760;28;20036;-93
2021/10/30 05:15:19;;;;;;;96.13;41.72;;;8.10;99.90;;;;;;5034318;28;20064;-94
2021/10/30 05:17:44;;;;;;;92.82;38.42;;;8.00;99.90;;;;;;5034693;28;20033;-93
2021/10/30 05:20:11;;;;;;;81.45;31.88;;;8.00;99.90;;;;;;5034615;28;20029;-92
2021/10/30 05:22:36;;;;;;;86.63;32.08;;;8.00;99.90;;;;;;5034038;28;20022;-93
2021/10/30 05:25:03;;;;;;;72.18;29.15;;;7.90;99.90;;;;;;5034132;28;20219;-92
2021/10/30 05:27:28;;;;;;;85.03;34.25;;;8.00;99.90;;;;;;5034282;28;20026;-94
2021/10/30 05:29:54;;;;;;;75.30;30.73;;;8.00;99.90;;;;;;5034077;28;20021;-95
2021/10/30 05:32:20;;;;;;;82.00;32.75;;;7.90;99.90;;;;;;5033847;28;20030;-92
2021/10/30 05:34:46;;;;;;;77.18;31.55;;;7.90;99.90;;;;;;5033718;28;20510;-93
2021/10/30 05:37:12;;;;;;;61.45;27.27;;;7.90;99.90;;;;;;5033949;28;20468;-93
2021/10/30 05:39:39;;;;;;;57.58;26.45;;;8.00;99.90;;;;;;5034412;28;20022;-93
2021/10/30 05:42:07;;;;;;;56.45;25.73;;;8.00;99.90;;;;;;5033838;28;20512;-93
2021/10/30 05:44:33;;;;;;;61.80;27.70;;;8.10;99.90;;;;;;5033829;28;20494;-93
2021/10/30 05:47:00;;;;;;;68.10;27.77;;;8.10;99.90;;;;;;5033760;28;20022;-93
2021/10/30 05:49:26;;;;;;;68.65;28.23;;;8.20;99.90;;;;;;5034177;28;20032;-93
2021/10/30 05:51:52;;;;;;;85.35;34.58;;;8.20;99.90;;;;;;5034019;28;20049;-93
2021/10/30 05:54:18;;;;;;;88.05;35.92;;;8.10;99.90;;;;;;5033923;28;20056;-93
2021/10/30 05:56:44;;;;;;;120.45;46.00;;;8.10;99.90;;;;;;5033744;28;20025;-93
2021/10/30 05:59:10;;;;;;;162.63;59.83;;;8.20;99.90;;;;;;5033836;28;20025;-93
2021/10/30 06:01:35;;;;;;;210.70;77.20;;;8.20;99.90;;;;;;5033686;28;20018;-92
2021/10/30 06:04:01;;;;;;;241.13;85.63;;;8.20;99.90;;;;;;5034140;28;20026;-93
2021/10/30 06:06:27;;;;;;;197.52;79.90;;;8.20;99.90;;;;;;5033518;28;20029;-94
2021/10/30 06:08:53;;;;;;;200.50;71.00;;;8.30;99.90;;;;;;5034163;28;20032;-93
2021/10/30 06:11:19;;;;;;;200.65;74.88;;;8.40;99.90;;;;;;5033551;28;20093;-94
2021/10/30 06:13:44;;;;;;;185.27;68.90;;;8.40;99.90;;;;;;5034329;28;20123;-93
2021/10/30 06:16:10;;;;;;;163.02;62.70;;;8.40;99.90;;;;;;5033295;28;20033;-93
2021/10/30 06:18:36;;;;;;;186.93;66.75;;;8.50;99.90;;;;;;5033587;28;20022;-94
2021/10/30 06:21:01;;;;;;;201.68;67.45;;;8.60;99.90;;;;;;5035075;28;20029;-96
2021/10/30 06:23:27;;;;;;;187.77;61.28;;;8.40;99.90;;;;;;5034354;28;20095;-96
2021/10/30 06:25:54;;;;;;;194.38;61.13;;;8.40;99.90;;;;;;5033648;28;20033;-96
2021/10/30 06:28:23;;;;;;;172.18;55.70;;;8.40;99.90;;;;;;5033445;28;20035;-96
2021/10/30 06:30:49;;;;;;;173.27;53.63;;;8.40;99.90;;;;;;5034145;28;20017;-96
2021/10/30 06:33:15;;;;;;;203.75;60.92;;;8.50;99.90;;;;;;5033913;28;20041;-96
2021/10/30 06:35:44;;;;;;;189.40;58.53;;;8.60;99.90;;;;;;5033221;28;20136;-96
2021/10/30 06:38:18;;;;;;;173.43;55.50;;;8.60;99.90;;;;;;5036313;28;20160;-96
2021/10/30 06:40:44;;;;;;;150.68;52.95;;;8.70;99.90;;;;;;5036052;28;20045;-96
2021/10/30 06:43:10;;;;;;;210.93;64.35;;;8.80;99.90;;;;;;5034353;28;20581;-96
2021/10/30 06:45:36;;;;;;;142.63;49.63;;;8.80;99.90;;;;;;5035157;28;20379;-96
2021/10/30 06:48:04;;;;;;;129.70;44.25;;;8.60;99.90;;;;;;5034618;28;20036;-96
2021/10/30 06:50:32;;;;;;;136.63;45.75;;;8.70;99.90;;;;;;5037388;28;20029;-96
2021/10/30 06:52:58;;;;;;;108.45;38.33;;;8.50;99.90;;;;;;5033705;28;20472;-96
2021/10/30 06:55:23;;;;;;;135.15;45.22;;;8.50;99.90;;;;;;5035613;28;20060;-95
2021/10/30 06:57:50;;;;;;;110.65;41.15;;;8.60;99.90;;;;;;5029801;28;20077;-95
2021/10/30 07:00:17;;;;;;;125.95;43.08;;;8.60;99.90;;;;;;5013220;28;20028;-95
2021/10/30 07:02:44;;;;;;;125.97;44.97;;;8.60;99.90;;;;;;5013422;28;20030;-94
2021/10/30 07:05:11;;;;;;;119.57;42.78;;;8.70;99.90;;;;;;5014053;28;20518;-96
2021/10/30 07:07:37;;;;;;;101.70;38.30;;;8.60;99.90;;;;;;5013440;28;20065;-94
2021/10/30 07:10:05;;;;;;;129.63;44.13;;;8.70;99.90;;;;;;5013303;28;20053;-94
2021/10/30 07:12:33;;;;;;;117.07;40.95;;;8.60;99.90;;;;;;5013490;28;20037;-94
2021/10/30 07:14:59;;;;;;;126.97;43.72;;;8.70;99.90;;;;;;5013234;28;20029;-94
2021/10/30 07:17:25;;;;;;;164.43;48.00;;;8.70;99.90;;;;;;5015097;28;20029;-94
2021/10/30 07:19:52;;;;;;;155.43;45.92;;;8.60;99.90;;;;;;5016987;28;20444;-94
2021/10/30 07:22:18;;;;;;;143.43;44.85;;;8.70;99.90;;;;;;5017363;28;20033;-96
2021/10/30 07:24:44;;;;;;;120.05;43.38;;;8.70;99.90;;;;;;5018585;28;20103;-95
2021/10/30 07:27:11;;;;;;;118.05;41.80;;;8.90;99.90;;;;;;5017443;28;20025;-96
2021/10/30 07:29:37;;;;;;;121.90;43.70;;;8.80;99.90;;;;;;5017723;28;20030;-95
2021/10/30 07:32:03;;;;;;;134.05;46.45;;;8.80;99.90;;;;;;5018112;28;20026;-95
2021/10/30 07:34:32;;;;;;;120.60;43.10;;;8.90;99.90;;;;;;5022254;28;20062;-94
2021/10/30 07:36:57;;;;;;;168.60;53.85;;;9.00;99.90;;;;;;5016716;28;20026;-91
2021/10/30 07:39:23;;;;;;;125.45;44.35;;;9.00;99.90;;;;;;5032818;28;20112;-92
2021/10/30 07:41:49;;;;;;;174.50;57.67;;;9.10;99.90;;;;;;5036226;28;20026;-92
2021/10/30 07:44:14;;;;;;;182.23;57.75;;;9.10;99.90;;;;;;5037512;28;20445;-92
2021/10/30 07:46:40;;;;;;;198.65;66.20;;;9.20;99.90;;;;;;5036336;28;20084;-92
2021/10/30 07:49:06;;;;;;;198.48;66.35;;;9.20;99.90;;;;;;5035906;28;20025;-92
2021/10/30 07:51:32;;;;;;;186.10;62.78;;;9.30;99.90;;;;;;5036102;28;20029;-91
2021/10/30 07:53:58;;;;;;;171.35;55.08;;;9.40;99.90;;;;;;5036029;28;20021;-92
2021/10/30 07:56:24;;;;;;;139.70;50.95;;;9.50;99.90;;;;;;5035829;28;20083;-92
2021/10/30 07:58:49;;;;;;;134.15;46.58;;;9.40;99.90;;;;;;5035940;28;20033;-90
2021/10/30 08:01:18;;;;;;;145.75;46.08;;;9.50;99.90;;;;;;5035768;28;20025;-92
2021/10/30 08:03:44;;;;;;;139.48;47.22;;;9.60;99.90;;;;;;5036031;28;20495;-91
2021/10/30 08:06:10;;;;;;;167.77;58.10;;;9.70;99.90;;;;;;5036928;28;20030;-92
2021/10/30 08:08:35;;;;;;;148.18;51.05;;;9.70;99.90;;;;;;5036176;28;20033;-92
2021/10/30 08:11:03;;;;;;;157.13;54.03;;;9.80;99.90;;;;;;5036533;28;20060;-94
2021/10/30 08:13:29;;;;;;;131.40;48.15;;;9.80;99.90;;;;;;5038606;28;20025;-96
2021/10/30 08:37:52;;;;;;;169.15;61.75;;;10.00;99.90;;;;;;4929499;29;20076;-96
2021/10/30 08:40:18;;;;;;;187.80;70.05;;;10.10;99.90;;;;;;4927131;29;20040;-96
2021/10/30 08:58:17;;;;;;;130.85;53.55;;;10.20;99.90;;;;;;5192122;23;20055;-96
2021/10/30 09:17:18;;;;;;;114.30;50.88;;;10.60;99.90;;;;;;5071884;23;20054;-96
2021/10/30 09:19:55;;;;;;;113.97;53.70;;;10.70;99.90;;;;;;4944471;29;20046;-96
2021/10/30 09:22:30;;;;;;;105.30;51.22;;;10.70;99.90;;;;;;4941311;29;20028;-96
2021/10/30 09:25:07;;;;;;;98.72;49.78;;;10.70;99.90;;;;;;4950553;29;20080;-96
2021/10/30 09:27:57;;;;;;;125.78;58.38;;;10.80;99.90;;;;;;4953034;28;20028;-96
2021/10/30 09:30:39;;;;;;;129.48;59.55;;;10.60;99.90;;;;;;4952840;29;20042;-96
2021/10/30 09:33:10;;;;;;;111.03;52.92;;;10.60;99.90;;;;;;4949311;28;20031;-96
2021/10/30 09:35:46;;;;;;;109.85;53.13;;;10.70;99.90;;;;;;4947539;29;20034;-96
2021/10/30 09:41:47;;;;;;;151.48;68.63;;;11.10;99.90;;;;;;5319326;23;20031;-96
2021/10/30 10:22:21;;;;;;;;;;;10.50;99.90;;;;;;5028409;28;20049;-96
2021/10/30 10:24:47;;;;;;;58.33;31.50;;;10.30;99.90;;;;;;5011757;28;19910;-96
2021/10/30 10:27:13;;;;;;;59.40;30.83;;;10.40;99.90;;;;;;5185821;23;20035;-96
2021/10/30 10:29:55;;;;;;;60.47;33.10;;;10.50;99.90;;;;;;4952565;29;20035;-96
2021/10/30 10:32:23;;;;;;;56.35;32.20;;;10.50;99.90;;;;;;4951291;29;20034;-96
2021/10/30 10:34:51;;;;;;;55.00;30.08;;;10.30;99.90;;;;;;4947165;29;20122;-96
2021/10/30 10:37:20;;;;;;;50.03;28.25;;;10.30;99.90;;;;;;4939859;29;20107;-96
2021/10/30 10:39:54;;;;;;;55.67;31.48;;;10.50;99.90;;;;;;4939069;29;20114;-90
2021/10/30 10:42:35;;;;;;;53.60;29.90;;;10.40;99.90;;;;;;4939258;29;20497;-96
2021/10/30 10:45:07;;;;;;;58.75;34.28;;;10.60;99.90;;;;;;4940560;29;20542;-96
2021/10/30 10:47:35;;;;;;;48.95;28.17;;;10.40;99.90;;;;;;4939015;29;20043;-96
2021/10/30 10:50:34;;;;;;;55.72;29.55;;;10.60;99.90;;;;;;4939252;29;20027;-96
2021/10/30 10:53:02;;;;;;;53.22;31.30;;;10.40;99.90;;;;;;4945391;29;20394;-96
2021/10/30 10:55:57;;;;;;;56.10;30.23;;;10.20;99.90;;;;;;4946394;29;20038;-96
2021/10/30 10:58:22;;;;;;;52.15;30.15;;;10.20;99.90;;;;;;4944467;29;20035;-96
2021/10/30 11:01:07;;;;;;;56.88;31.80;;;9.90;99.90;;;;;;4944886;29;20027;-96
2021/10/30 11:03:41;;;;;;;61.20;33.42;;;9.70;99.90;;;;;;4929338;29;20487;-96
2021/10/30 11:06:07;;;;;;;55.67;30.40;;;9.50;99.90;;;;;;4943828;29;20122;-96
2021/10/30 11:08:37;;;;;;;60.90;33.20;;;9.60;99.90;;;;;;4944546;29;20501;-96
2021/10/30 11:11:13;;;;;;;48.25;27.45;;;9.50;99.90;;;;;;4945234;29;20053;-96
2021/10/30 11:13:59;;;;;;;45.90;25.92;;;9.60;99.90;;;;;;4950849;29;20027;-96
2021/10/30 11:16:36;;;;;;;47.60;27.50;;;9.70;99.90;;;;;;4947342;29;20027;-96
2021/10/30 11:19:07;;;;;;;49.55;29.25;;;9.80;99.90;;;;;;4944655;29;20467;-96
2021/10/30 11:21:37;;;;;;;49.28;28.23;;;9.80;99.90;;;;;;4943094;29;20027;-95
2021/10/30 11:24:19;;;;;;;55.75;31.70;;;10.00;99.90;;;;;;4942891;29;20023;-96
2021/10/30 11:27:01;;;;;;;51.97;30.05;;;10.00;99.90;;;;;;4948081;28;20047;-96
2021/10/30 11:29:28;;;;;;;56.47;30.63;;;9.80;99.90;;;;;;4962644;28;20027;-96
2021/10/30 11:32:02;;;;;;;53.53;30.52;;;9.80;99.90;;;;;;4963554;28;20026;-96
2021/10/30 11:34:28;;;;;;;52.38;28.60;;;9.80;99.90;;;;;;4961708;28;20019;-96
2021/10/30 11:36:56;;;;;;;56.08;31.05;;;9.80;99.90;;;;;;4961991;28;20027;-96
2021/10/30 11:39:23;;;;;;;51.30;30.70;;;9.60;99.90;;;;;;4963165;28;20081;-96
2021/10/30 11:41:49;;;;;;;56.35;30.27;;;9.70;99.90;;;;;;4961744;28;20035;-96
2021/10/30 11:44:16;;;;;;;61.85;30.63;;;9.70;99.90;;;;;;4962243;28;20027;-96
2021/10/30 11:46:56;;;;;;;63.88;31.27;;;9.40;99.90;;;;;;4962915;28;20027;-94
2021/10/30 11:49:34;;;;;;;58.20;30.58;;;9.30;99.90;;;;;;4963580;28;20030;-96
2021/10/30 11:52:05;;;;;;;54.60;29.38;;;9.40;99.90;;;;;;4961471;28;20057;-96
2021/10/30 11:54:32;;;;;;;49.72;27.27;;;9.40;99.90;;;;;;4962465;28;20033;-95
2021/10/30 11:57:09;;;;;;;51.88;26.58;;;9.50;99.90;;;;;;4964172;28;20026;-95
2021/10/30 12:03:01;;;;;;;49.92;27.20;;;9.60;99.90;;;;;;4910945;29;20116;-96
2021/10/30 12:05:33;;;;;;;59.85;30.83;;;9.40;99.90;;;;;;4965451;28;20031;-96
2021/10/30 12:08:07;;;;;;;56.25;28.58;;;9.10;99.90;;;;;;4962537;28;20027;-96
2021/10/30 12:10:34;;;;;;;52.97;30.00;;;9.20;99.90;;;;;;4961165;28;20170;-96
2021/10/30 12:13:09;;;;;;;50.20;28.67;;;9.30;99.90;;;;;;4961267;28;20086;-96
2021/10/30 12:15:40;;;;;;;54.00;29.40;;;9.30;99.90;;;;;;4964586;28;20122;-96
2021/10/30 12:18:06;;;;;;;57.50;31.23;;;9.30;99.90;;;;;;4960935;28;20023;-96
2021/10/30 12:20:32;;;;;;;47.83;27.70;;;9.30;99.90;;;;;;4961558;28;20462;-96
2021/10/30 12:22:59;;;;;;;65.15;32.15;;;9.40;99.90;;;;;;4964443;28;20033;-96
2021/10/30 12:25:27;;;;;;;49.47;28.65;;;9.40;99.90;;;;;;4962717;28;20118;-96
2021/10/30 12:27:57;;;;;;;50.17;28.17;;;9.50;99.90;;;;;;4961738;28;20133;-96
2021/10/30 12:30:30;;;;;;;52.78;27.70;;;9.40;99.90;;;;;;4962336;28;20117;-96
2021/10/30 12:33:12;;;;;;;51.67;30.05;;;9.40;99.90;;;;;;4961349;28;20046;-96
2021/10/30 12:35:43;;;;;;;50.60;24.52;;;9.50;99.90;;;;;;4950011;28;20038;-95
2021/10/30 12:38:35;;;;;;;62.33;30.80;;;9.60;99.90;;;;;;4977759;28;20014;-96
2021/10/30 12:43:42;;;;;;;49.70;26.73;;;9.40;99.90;;;;;;5002575;23;20078;-96
2021/10/30 12:46:11;;;;;;;48.85;28.08;;;9.40;99.90;;;;;;4967538;28;20162;-96
2021/10/30 12:48:45;;;;;;;49.95;27.77;;;9.50;99.90;;;;;;4963430;28;20023;-96
2021/10/30 12:51:25;;;;;;;47.13;25.75;;;9.50;99.90;;;;;;4961990;28;20023;-91
2021/10/30 12:54:02;;;;;;;48.72;24.52;;;9.50;99.90;;;;;;4956275;28;20026;-93
2021/10/30 12:56:28;;;;;;;56.35;27.73;;;9.70;99.90;;;;;;4960842;28;20030;-94
2021/10/30 12:59:01;;;;;;;54.88;29.30;;;9.70;99.90;;;;;;4961009;28;20121;-93
2021/10/30 13:01:32;;;;;;;53.60;29.50;;;9.50;99.90;;;;;;4963254;28;20047;-95
2021/10/30 13:04:07;;;;;;;;;;;9.30;99.90;;;;;;4967659;28;20027;-94
2021/10/30 13:06:35;;;;;;;55.42;28.70;;;9.30;99.90;;;;;;4963149;28;19917;-90
2021/10/30 13:09:18;;;;;;;48.13;25.65;;;9.30;99.90;;;;;;4964101;28;20031;-92
2021/10/30 13:11:46;;;;;;;57.97;29.83;;;9.20;99.90;;;;;;4961192;28;20485;-94
2021/10/30 13:14:12;;;;;;;54.00;28.52;;;9.10;99.90;;;;;;4960353;28;20035;-94
2021/10/30 13:16:38;;;;;;;65.15;30.70;;;9.20;99.90;;;;;;4960146;28;20034;-96
2021/10/30 13:19:04;;;;;;;53.58;28.15;;;9.20;99.90;;;;;;4960638;28;20020;-94
2021/10/30 13:21:31;;;;;;;64.72;30.00;;;9.20;99.90;;;;;;4959874;28;20030;-95
2021/10/30 13:23:58;;;;;;;59.65;29.88;;;9.30;99.90;;;;;;4959903;28;20501;-92
2021/10/30 13:27:14;;;;;;;67.75;32.92;;;9.20;99.90;;;;;;4959705;28;20027;-92
2021/10/30 13:29:40;;;;;;;72.90;33.67;;;9.10;99.90;;;;;;4959598;28;20030;-92
2021/10/30 13:32:06;;;;;;;358.08;161.93;;;9.20;99.90;;;;;;4959400;28;20492;-93
2021/10/30 13:34:32;;;;;;;1999.90;999.35;;;9.20;99.90;;;;;;4960054;28;20026;-93
2021/10/30 13:36:58;;;;;;;926.65;540.35;;;9.20;99.90;;;;;;4959381;28;20080;-93
2021/10/30 13:39:24;;;;;;;436.80;181.85;;;9.20;99.90;;;;;;4959744;28;20038;-94
2021/10/30 13:41:50;;;;;;;135.13;52.55;;;9.10;99.90;;;;;;4959197;28;20027;-94
2021/10/30 13:44:15;;;;;;;333.85;204.48;;;9.00;99.90;;;;;;4959676;28;20050;-96
2021/10/30 13:46:42;;;;;;;122.03;63.03;;;9.10;99.90;;;;;;4960708;28;20030;-95
2021/10/30 13:49:08;;;;;;;98.28;44.33;;;9.20;99.90;;;;;;4959594;28;20054;-90
2021/10/30 13:51:34;;;;;;;76.85;38.42;;;9.20;99.90;;;;;;4959096;28;20023;-91
2021/10/30 13:54:00;;;;;;;120.95;54.70;;;9.20;99.90;;;;;;4960230;28;20059;-93
2021/10/30 13:56:27;;;;;;;91.05;45.20;;;9.20;99.90;;;;;;4959855;28;20422;-93
2021/10/30 13:58:53;;;;;;;87.22;48.33;;;9.30;99.90;;;;;;4959405;28;20042;-94
2021/10/30 14:01:19;;;;;;;72.20;36.45;;;9.30;99.90;;;;;;4960531;28;20018;-94
2021/10/30 14:03:45;;;;;;;72.40;34.85;;;9.30;99.90;;;;;;4958883;28;20031;-92
2021/10/30 14:06:11;;;;;;;82.07;43.28;;;9.30;99.90;;;;;;4959810;28;20026;-91
2021/10/30 14:08:38;;;;;;;68.55;36.53;;;9.30;99.90;;;;;;4958666;28;20118;-92
2021/10/30 14:11:04;;;;;;;59.97;32.75;;;9.30;99.90;;;;;;4958642;28;20031;-93
2021/10/30 14:13:30;;;;;;;107.63;58.28;;;9.30;99.90;;;;;;4958523;28;20034;-93
2021/10/30 14:15:56;;;;;;;72.65;39.45;;;9.20;99.90;;;;;;4959364;28;20031;-95